Time;durP1;ratioP1;P1;durP2;ratioP2;P2;SDS_P1;SDS_P2;PMS_P1;PMS_P2;Temp;Humidity;BMP_temperature;BMP_pressure;BME280_temperature;BME280_humidity;BME280_pressure;Samples;Min_cycle;Max_cycle;Signal;HPM_P1;HPM_P2
2023/03/02 00:02:25;;;;;;;5.17;2.80;;;;;;;;;;5083916;28;20208;-61
2023/03/02 00:04:54;;;;;;;2.17;1.73;;;;;;;;;;5089986;28;20205;-61
2023/03/02 00:07:23;;;;;;;5.77;2.73;;;;;;;;;;5089751;28;20263;-62
2023/03/02 00:09:50;;;;;;;2.03;1.93;;;;;;;;;;5089983;28;20266;-62
2023/03/02 00:12:17;;;;;;;1.57;1.30;;;;;;;;;;5089894;28;20229;-62
2023/03/02 00:14:44;;;;;;;3.53;2.13;;;;;;;;;;5089532;28;20213;-62
2023/03/02 00:17:11;;;;;;;3.77;2.47;;;;;;;;;;5088634;28;20216;-61
2023/03/02 00:19:38;;;;;;;3.27;2.97;;;;;;;;;;5088694;28;20212;-62
2023/03/02 00:22:06;;;;;;;3.90;1.97;;;;;;;;;;5089391;28;20225;-61
2023/03/02 00:24:33;;;;;;;3.10;2.83;;;;;;;;;;5089448;28;20536;-61
2023/03/02 00:27:01;;;;;;;1.90;1.77;;;;;;;;;;5089554;28;20209;-61
2023/03/02 00:29:28;;;;;;;0.50;0.50;;;;;;;;;;5087761;28;20914;-61
2023/03/02 00:31:55;;;;;;;5.33;2.67;;;;;;;;;;5089843;28;20233;-61
2023/03/02 00:34:22;;;;;;;7.23;1.40;;;;;;;;;;5087470;28;20207;-62
2023/03/02 00:36:49;;;;;;;4.00;2.53;;;;;;;;;;5081405;28;20202;-62
2023/03/02 00:39:18;;;;;;;1.13;1.13;;;;;;;;;;5089262;28;20220;-62
2023/03/02 00:41:46;;;;;;;1.53;1.50;;;;;;;;;;5089620;28;20215;-62
2023/03/02 00:44:18;;;;;;;0.87;0.87;;;;;;;;;;5089018;28;20261;-62
2023/03/02 00:46:45;;;;;;;3.53;3.07;;;;;;;;;;5088586;28;20728;-61
2023/03/02 00:49:12;;;;;;;1.47;1.30;;;;;;;;;;5088736;28;20219;-61
2023/03/02 00:51:39;;;;;;;1.07;0.87;;;;;;;;;;5089474;28;20236;-62
2023/03/02 00:54:06;;;;;;;2.30;2.10;;;;;;;;;;5088934;28;20208;-61
2023/03/02 00:56:35;;;;;;;1.73;1.63;;;;;;;;;;5088909;28;20642;-61
2023/03/02 00:59:05;;;;;;;4.07;1.33;;;;;;;;;;5088533;28;20254;-62
2023/03/02 01:01:32;;;;;;;2.30;2.17;;;;;;;;;;5089204;28;20260;-62
2023/03/02 01:03:59;;;;;;;2.80;1.03;;;;;;;;;;5087651;28;20207;-61
2023/03/02 01:06:26;;;;;;;2.70;2.50;;;;;;;;;;5088727;28;20335;-62
2023/03/02 01:08:53;;;;;;;3.03;2.73;;;;;;;;;;5088549;28;20201;-62
2023/03/02 01:11:21;;;;;;;0.70;0.70;;;;;;;;;;5088784;28;20214;-62
2023/03/02 01:13:50;;;;;;;7.73;3.03;;;;;;;;;;5088879;28;20200;-62
2023/03/02 01:16:17;;;;;;;5.43;2.83;;;;;;;;;;5088608;28;20213;-62
2023/03/02 01:18:44;;;;;;;1.57;1.30;;;;;;;;;;5087992;28;20217;-62
2023/03/02 01:21:12;;;;;;;1.70;1.50;;;;;;;;;;5088408;28;20231;-62
2023/03/02 01:23:39;;;;;;;4.43;2.37;;;;;;;;;;5088297;28;20205;-62
2023/03/02 01:26:07;;;;;;;0.73;0.73;;;;;;;;;;5088134;28;20204;-62
2023/03/02 01:28:34;;;;;;;0.57;0.57;;;;;;;;;;5083157;28;20217;-62
2023/03/02 01:31:03;;;;;;;1.93;0.87;;;;;;;;;;5088462;28;20635;-62
2023/03/02 01:33:30;;;;;;;2.50;2.10;;;;;;;;;;5087851;28;20227;-62
2023/03/02 01:35:57;;;;;;;1.70;1.17;;;;;;;;;;5088335;28;20219;-62
2023/03/02 01:38:24;;;;;;;2.33;2.10;;;;;;;;;;5087541;28;20761;-61
2023/03/02 01:40:51;;;;;;;3.03;1.27;;;;;;;;;;5088248;28;20217;-62
2023/03/02 01:43:18;;;;;;;4.97;2.43;;;;;;;;;;5088259;28;20259;-62
2023/03/02 01:45:47;;;;;;;2.60;2.37;;;;;;;;;;5087860;28;20198;-62
2023/03/02 01:48:17;;;;;;;3.67;2.70;;;;;;;;;;5076202;28;20213;-61
2023/03/02 01:50:45;;;;;;;3.53;2.60;;;;;;;;;;5080561;28;20204;-61
2023/03/02 01:53:12;;;;;;;2.33;1.43;;;;;;;;;;5074909;28;20314;-61
2023/03/02 01:55:40;;;;;;;1.30;1.30;;;;;;;;;;5082648;28;20208;-62
2023/03/02 01:58:07;;;;;;;3.10;2.10;;;;;;;;;;5079221;28;21058;-62
2023/03/02 02:00:36;;;;;;;4.07;1.40;;;;;;;;;;5079713;28;20203;-62
2023/03/02 02:03:08;;;;;;;6.90;1.00;;;;;;;;;;5085342;28;20205;-61
2023/03/02 02:05:37;;;;;;;2.57;2.37;;;;;;;;;;5084762;28;20202;-61
2023/03/02 02:08:05;;;;;;;3.63;1.47;;;;;;;;;;5086525;28;20214;-61
2023/03/02 02:10:32;;;;;;;1.07;0.33;;;;;;;;;;5087294;28;20203;-61
2023/03/02 02:12:59;;;;;;;3.33;1.87;;;;;;;;;;5088143;28;20282;-61
2023/03/02 02:15:27;;;;;;;1.57;0.70;;;;;;;;;;5087061;28;20230;-62
2023/03/02 02:17:54;;;;;;;1.27;0.70;;;;;;;;;;5087619;28;20202;-62
2023/03/02 02:20:24;;;;;;;1.90;1.70;;;;;;;;;;5082624;28;20332;-62
2023/03/02 02:22:57;;;;;;;2.63;1.30;;;;;;;;;;5087387;28;20232;-62
2023/03/02 02:25:31;;;;;;;1.93;1.70;;;;;;;;;;5087522;28;20689;-61
2023/03/02 02:28:00;;;;;;;0.80;0.53;;;;;;;;;;5079469;28;20204;-62
2023/03/02 02:30:27;;;;;;;2.37;2.20;;;;;;;;;;5087238;28;20213;-62
2023/03/02 02:32:55;;;;;;;2.13;1.27;;;;;;;;;;5087221;28;20230;-62
2023/03/02 02:35:26;;;;;;;2.37;2.00;;;;;;;;;;5087635;28;20291;-62
2023/03/02 02:37:54;;;;;;;2.17;1.93;;;;;;;;;;5086764;28;20208;-62
2023/03/02 02:40:23;;;;;;;1.23;1.20;;;;;;;;;;5087440;28;20213;-62
2023/03/02 02:42:52;;;;;;;0.87;0.87;;;;;;;;;;5087493;28;20202;-62
2023/03/02 02:45:22;;;;;;;2.37;0.77;;;;;;;;;;5086942;28;20217;-62
2023/03/02 02:47:50;;;;;;;3.30;1.87;;;;;;;;;;5086165;28;20251;-62
2023/03/02 02:50:17;;;;;;;5.10;2.70;;;;;;;;;;5087228;28;20212;-62
2023/03/02 02:52:45;;;;;;;1.57;1.43;;;;;;;;;;5087071;28;20337;-62
2023/03/02 02:55:15;;;;;;;5.77;2.53;;;;;;;;;;5086985;28;20203;-63
2023/03/02 02:57:42;;;;;;;2.77;2.00;;;;;;;;;;5086622;28;20212;-62
2023/03/02 03:00:16;;;;;;;7.20;3.10;;;;;;;;;;5086634;28;20208;-62
2023/03/02 03:02:45;;;;;;;2.27;0.97;;;;;;;;;;5084283;28;20315;-62
2023/03/02 03:05:14;;;;;;;3.17;1.90;;;;;;;;;;5087153;28;20211;-62
2023/03/02 03:07:41;;;;;;;5.67;2.63;;;;;;;;;;5084426;28;20232;-62
2023/03/02 03:10:11;;;;;;;4.20;2.47;;;;;;;;;;5087407;28;20210;-62
2023/03/02 03:12:39;;;;;;;3.17;1.37;;;;;;;;;;5086961;28;20598;-62
2023/03/02 03:15:07;;;;;;;3.03;1.47;;;;;;;;;;5086291;28;20219;-62
2023/03/02 03:17:34;;;;;;;1.50;1.40;;;;;;;;;;5087380;28;20215;-62
2023/03/02 03:20:06;;;;;;;3.00;2.73;;;;;;;;;;5086914;28;20213;-62
2023/03/02 03:22:34;;;;;;;1.40;1.30;;;;;;;;;;5087218;28;20636;-62
2023/03/02 03:25:05;;;;;;;4.40;1.80;;;;;;;;;;5087107;28;20211;-63
2023/03/02 03:27:32;;;;;;;2.00;1.60;;;;;;;;;;5086432;28;20204;-62
2023/03/02 03:30:00;;;;;;;3.03;1.17;;;;;;;;;;5087154;28;20214;-62
2023/03/02 03:32:27;;;;;;;8.90;3.63;;;;;;;;;;5086787;28;20227;-62
2023/03/02 03:34:54;;;;;;;4.93;2.57;;;;;;;;;;5087534;28;20208;-62
2023/03/02 03:37:23;;;;;;;8.17;3.20;;;;;;;;;;5087115;28;20213;-62
2023/03/02 03:39:50;;;;;;;2.87;1.83;;;;;;;;;;5087078;28;20206;-62
2023/03/02 03:42:17;;;;;;;0.63;0.60;;;;;;;;;;5087064;28;20208;-62
2023/03/02 03:44:44;;;;;;;2.97;2.23;;;;;;;;;;5086697;28;20206;-62
2023/03/02 03:47:11;;;;;;;10.60;4.37;;;;;;;;;;5085877;28;20208;-62
2023/03/02 03:49:38;;;;;;;2.67;2.17;;;;;;;;;;5086684;28;20226;-63
2023/03/02 03:52:05;;;;;;;4.27;2.70;;;;;;;;;;5086115;28;20247;-63
2023/03/02 03:54:33;;;;;;;3.27;2.93;;;;;;;;;;5086409;28;20223;-63
2023/03/02 03:57:01;;;;;;;3.13;2.17;;;;;;;;;;5086074;28;20209;-63
2023/03/02 03:59:28;;;;;;;2.87;1.60;;;;;;;;;;5086501;28;20763;-62
2023/03/02 04:01:56;;;;;;;7.63;3.37;;;;;;;;;;5086151;28;20211;-63
2023/03/02 04:04:25;;;;;;;2.87;2.10;;;;;;;;;;5086358;28;20678;-62
2023/03/02 04:06:52;;;;;;;2.10;2.00;;;;;;;;;;5086133;28;20262;-63
2023/03/02 04:09:19;;;;;;;1.97;1.73;;;;;;;;;;5085705;28;20216;-63
2023/03/02 04:11:49;;;;;;;2.57;1.17;;;;;;;;;;5080091;28;20208;-62
2023/03/02 04:14:16;;;;;;;1.67;1.23;;;;;;;;;;5085609;28;20549;-63
2023/03/02 04:16:43;;;;;;;3.50;2.80;;;;;;;;;;5086026;28;20211;-62
2023/03/02 04:19:11;;;;;;;10.27;3.10;;;;;;;;;;5085740;28;20207;-63
2023/03/02 04:21:38;;;;;;;1.90;1.17;;;;;;;;;;5085092;28;20232;-62
2023/03/02 04:24:06;;;;;;;7.00;3.17;;;;;;;;;;5086299;28;20233;-62
2023/03/02 04:26:33;;;;;;;0.90;0.90;;;;;;;;;;5086064;28;20294;-62
2023/03/02 04:29:02;;;;;;;0.73;0.67;;;;;;;;;;5086041;28;20261;-63
2023/03/02 04:31:30;;;;;;;3.67;2.80;;;;;;;;;;5085316;28;20287;-63
2023/03/02 04:33:57;;;;;;;1.50;0.73;;;;;;;;;;5085872;28;20617;-62
2023/03/02 04:36:24;;;;;;;5.00;2.03;;;;;;;;;;5086146;28;20268;-62
2023/03/02 04:38:51;;;;;;;1.87;1.53;;;;;;;;;;5087368;28;20318;-61
2023/03/02 04:41:19;;;;;;;4.60;1.00;;;;;;;;;;5089068;28;20210;-62
2023/03/02 04:43:46;;;;;;;1.97;1.40;;;;;;;;;;5088888;28;20293;-62
2023/03/02 04:46:16;;;;;;;0.73;0.67;;;;;;;;;;5089348;28;20215;-62
2023/03/02 04:48:43;;;;;;;3.63;2.23;;;;;;;;;;5088910;28;20256;-61
2023/03/02 04:51:12;;;;;;;2.30;2.10;;;;;;;;;;5089087;28;20207;-62
2023/03/02 04:53:39;;;;;;;1.23;0.87;;;;;;;;;;5088905;28;20221;-62
2023/03/02 04:56:07;;;;;;;4.43;2.17;;;;;;;;;;5089037;28;20204;-61
2023/03/02 04:58:34;;;;;;;0.40;0.40;;;;;;;;;;5088496;28;20208;-61
2023/03/02 05:01:01;;;;;;;3.90;1.50;;;;;;;;;;5088747;28;20215;-62
2023/03/02 05:03:29;;;;;;;5.07;2.03;;;;;;;;;;5088592;28;20199;-62
2023/03/02 05:05:56;;;;;;;9.17;3.77;;;;;;;;;;5088456;28;20244;-62
2023/03/02 05:08:24;;;;;;;4.33;3.47;;;;;;;;;;5088917;28;20201;-62
2023/03/02 05:10:51;;;;;;;4.07;1.93;;;;;;;;;;5088737;28;20212;-62
2023/03/02 05:13:18;;;;;;;2.27;2.07;;;;;;;;;;5088461;28;20223;-62
2023/03/02 05:15:45;;;;;;;1.30;1.07;;;;;;;;;;5088422;28;20616;-62
2023/03/02 05:18:12;;;;;;;1.90;1.20;;;;;;;;;;5087976;28;20207;-62
2023/03/02 05:20:41;;;;;;;2.27;1.90;;;;;;;;;;5084062;28;20222;-62
2023/03/02 05:23:09;;;;;;;2.03;1.40;;;;;;;;;;5071909;28;20200;-61
2023/03/02 05:25:37;;;;;;;6.30;3.80;;;;;;;;;;5082610;28;20213;-64
2023/03/02 05:28:04;;;;;;;2.80;1.63;;;;;;;;;;5088733;28;20630;-61
2023/03/02 05:30:36;;;;;;;1.87;1.77;;;;;;;;;;5085827;28;20206;-61
2023/03/02 05:33:03;;;;;;;3.07;2.60;;;;;;;;;;5088755;28;20208;-61
2023/03/02 05:35:30;;;;;;;3.87;2.27;;;;;;;;;;5088899;28;20267;-61
2023/03/02 05:37:59;;;;;;;0.83;0.83;;;;;;;;;;5080232;28;20637;-62
2023/03/02 05:40:26;;;;;;;9.60;2.30;;;;;;;;;;5087994;28;20211;-62
2023/03/02 05:42:53;;;;;;;0.93;0.93;;;;;;;;;;5088604;28;20302;-62
2023/03/02 05:45:22;;;;;;;3.47;2.00;;;;;;;;;;5083724;28;20208;-61
2023/03/02 05:47:49;;;;;;;2.70;2.17;;;;;;;;;;5088330;28;20265;-62
2023/03/02 05:50:16;;;;;;;1.10;0.90;;;;;;;;;;5086830;28;20214;-62
2023/03/02 05:52:44;;;;;;;4.33;2.03;;;;;;;;;;5088142;28;20868;-63
2023/03/02 05:55:12;;;;;;;3.27;0.87;;;;;;;;;;5087736;28;20561;-61
2023/03/02 05:57:40;;;;;;;3.33;1.23;;;;;;;;;;5087349;28;20602;-61
2023/03/02 06:00:08;;;;;;;1.73;1.63;;;;;;;;;;5088048;28;20212;-61
2023/03/02 06:02:38;;;;;;;2.03;1.80;;;;;;;;;;5087902;28;20286;-61
2023/03/02 06:05:05;;;;;;;3.27;2.47;;;;;;;;;;5088279;28;20369;-62
2023/03/02 06:07:32;;;;;;;0.73;0.70;;;;;;;;;;5087707;28;20238;-61
2023/03/02 06:09:59;;;;;;;5.33;2.23;;;;;;;;;;5088109;28;20198;-61
2023/03/02 06:12:27;;;;;;;2.27;0.90;;;;;;;;;;5087979;28;20247;-62
2023/03/02 06:14:54;;;;;;;1.37;0.97;;;;;;;;;;5087769;28;20692;-62
2023/03/02 06:17:21;;;;;;;3.17;2.27;;;;;;;;;;5087706;28;20210;-63
2023/03/02 06:19:48;;;;;;;3.67;0.83;;;;;;;;;;5083601;28;20210;-63
2023/03/02 06:22:15;;;;;;;1.43;1.00;;;;;;;;;;5087903;28;20737;-63
2023/03/02 06:24:42;;;;;;;3.73;2.50;;;;;;;;;;5087783;28;20200;-63
2023/03/02 06:27:09;;;;;;;2.60;1.33;;;;;;;;;;5088086;28;20214;-62
2023/03/02 06:29:38;;;;;;;1.70;1.60;;;;;;;;;;5087692;28;20235;-62
2023/03/02 06:32:05;;;;;;;1.30;1.17;;;;;;;;;;5077603;28;20256;-63
2023/03/02 06:34:32;;;;;;;2.13;1.50;;;;;;;;;;5087466;28;20572;-63
2023/03/02 06:36:59;;;;;;;2.10;1.97;;;;;;;;;;5087201;28;20210;-62
2023/03/02 06:39:26;;;;;;;1.23;1.23;;;;;;;;;;5086825;28;20881;-66
2023/03/02 06:41:53;;;;;;;2.20;2.00;;;;;;;;;;5087285;28;20203;-63
2023/03/02 06:44:20;;;;;;;1.50;1.43;;;;;;;;;;5085901;28;20248;-62
2023/03/02 06:46:49;;;;;;;3.93;2.53;;;;;;;;;;5085593;28;20204;-61
2023/03/02 06:49:16;;;;;;;2.13;1.93;;;;;;;;;;5082727;28;20212;-61
2023/03/02 06:51:43;;;;;;;1.30;1.23;;;;;;;;;;5079192;28;20231;-62
2023/03/02 06:54:10;;;;;;;2.13;1.10;;;;;;;;;;5087376;28;20227;-62
2023/03/02 06:56:37;;;;;;;3.07;2.10;;;;;;;;;;5086911;28;20353;-62
2023/03/02 06:59:04;;;;;;;1.47;1.00;;;;;;;;;;5086727;28;20205;-62
2023/03/02 07:01:34;;;;;;;0.50;0.50;;;;;;;;;;5085763;28;20213;-62
2023/03/02 07:04:02;;;;;;;1.87;1.10;;;;;;;;;;5086943;28;20198;-62
2023/03/02 07:06:29;;;;;;;1.80;1.70;;;;;;;;;;5083052;28;20583;-63
2023/03/02 07:08:56;;;;;;;0.50;0.50;;;;;;;;;;5086715;28;20216;-63
2023/03/02 07:11:23;;;;;;;2.03;1.60;;;;;;;;;;5085296;28;20203;-61
2023/03/02 07:13:51;;;;;;;2.10;1.57;;;;;;;;;;5087392;28;20227;-62
2023/03/02 07:16:18;;;;;;;3.63;1.87;;;;;;;;;;5087340;28;20220;-62
2023/03/02 07:18:45;;;;;;;3.00;1.80;;;;;;;;;;5086993;28;20203;-61
2023/03/02 07:21:13;;;;;;;13.13;1.60;;;;;;;;;;5080317;28;20335;-62
2023/03/02 07:23:40;;;;;;;1.10;1.10;;;;;;;;;;5086941;28;20562;-62
2023/03/02 07:26:07;;;;;;;2.50;1.87;;;;;;;;;;5086029;28;20816;-62
2023/03/02 07:28:35;;;;;;;2.77;2.13;;;;;;;;;;5080317;28;20302;-61
2023/03/02 07:31:02;;;;;;;2.70;1.80;;;;;;;;;;5075903;28;20212;-62
2023/03/02 07:33:29;;;;;;;1.80;1.23;;;;;;;;;;5084368;28;20228;-62
2023/03/02 07:35:56;;;;;;;4.50;2.43;;;;;;;;;;5083543;28;20324;-63
2023/03/02 07:38:25;;;;;;;2.20;1.60;;;;;;;;;;5079702;28;20209;-63
2023/03/02 07:40:52;;;;;;;2.07;1.97;;;;;;;;;;5071604;28;20209;-63
2023/03/02 07:43:19;;;;;;;2.70;1.33;;;;;;;;;;5078122;28;20202;-63
2023/03/02 07:45:46;;;;;;;4.20;2.40;;;;;;;;;;5076836;28;20209;-63
2023/03/02 07:48:13;;;;;;;4.73;3.07;;;;;;;;;;5078227;28;20220;-63
2023/03/02 07:50:40;;;;;;;3.40;2.63;;;;;;;;;;5081110;28;20212;-63
2023/03/02 07:53:07;;;;;;;8.23;2.60;;;;;;;;;;5086015;28;20633;-63
2023/03/02 07:55:36;;;;;;;4.40;3.10;;;;;;;;;;5086964;28;20226;-62
2023/03/02 07:58:05;;;;;;;1.60;1.50;;;;;;;;;;5081296;28;20206;-62
2023/03/02 08:00:32;;;;;;;3.17;1.10;;;;;;;;;;5071421;28;20293;-63
2023/03/02 08:02:59;;;;;;;4.50;1.93;;;;;;;;;;5081711;28;20737;-63
2023/03/02 08:05:26;;;;;;;3.07;1.57;;;;;;;;;;5085633;28;20209;-62
2023/03/02 08:07:53;;;;;;;4.77;1.97;;;;;;;;;;5086743;28;20214;-63
2023/03/02 08:10:20;;;;;;;6.83;3.27;;;;;;;;;;5081633;28;20221;-63
2023/03/02 08:12:48;;;;;;;3.93;2.37;;;;;;;;;;5088668;28;20212;-63
2023/03/02 08:15:16;;;;;;;2.43;1.70;;;;;;;;;;5083496;28;20230;-64
2023/03/02 08:17:43;;;;;;;1.40;1.30;;;;;;;;;;5088005;28;20224;-63
2023/03/02 08:20:11;;;;;;;2.30;0.90;;;;;;;;;;5089921;28;20202;-63
2023/03/02 08:22:38;;;;;;;3.10;1.80;;;;;;;;;;5090651;28;20237;-65
2023/03/02 08:25:06;;;;;;;3.10;2.40;;;;;;;;;;5083567;28;20565;-65
2023/03/02 08:27:33;;;;;;;1.50;0.93;;;;;;;;;;5090703;28;20335;-66
2023/03/02 08:30:01;;;;;;;4.23;2.40;;;;;;;;;;5090392;28;20485;-63
2023/03/02 08:32:28;;;;;;;2.33;1.20;;;;;;;;;;5086666;28;20212;-62
2023/03/02 08:34:55;;;;;;;2.37;2.03;;;;;;;;;;5088380;28;20293;-63
2023/03/02 08:37:22;;;;;;;3.53;2.47;;;;;;;;;;5084886;28;20930;-59
2023/03/02 08:39:50;;;;;;;4.20;2.80;;;;;;;;;;5090523;28;20253;-64
2023/03/02 08:42:17;;;;;;;2.37;1.47;;;;;;;;;;5090778;28;20211;-64
2023/03/02 08:44:44;;;;;;;3.73;2.57;;;;;;;;;;5087614;28;20199;-63
2023/03/02 08:47:13;;;;;;;3.83;2.93;;;;;;;;;;5084735;28;20272;-63
2023/03/02 08:49:40;;;;;;;10.70;5.93;;;;;;;;;;5089602;28;20219;-64
2023/03/02 08:52:07;;;;;;;8.03;3.93;;;;;;;;;;5089112;28;20229;-63
2023/03/02 08:54:34;;;;;;;3.57;1.70;;;;;;;;;;5090162;28;20286;-63
2023/03/02 08:57:01;;;;;;;4.50;2.80;;;;;;;;;;5089895;28;20212;-70
2023/03/02 08:59:28;;;;;;;5.03;2.87;;;;;;;;;;5084843;28;20617;-63
2023/03/02 09:01:55;;;;;;;1.60;1.20;;;;;;;;;;5074471;28;20696;-63
2023/03/02 09:04:24;;;;;;;6.17;2.83;;;;;;;;;;5079649;28;20206;-63
2023/03/02 09:06:51;;;;;;;3.80;2.90;;;;;;;;;;5082585;28;20264;-64
2023/03/02 09:09:18;;;;;;;2.90;2.27;;;;;;;;;;5079486;28;20210;-64
2023/03/02 09:11:45;;;;;;;4.17;2.67;;;;;;;;;;5082662;28;20256;-65
2023/03/02 09:14:12;;;;;;;3.97;3.10;;;;;;;;;;5077024;28;20673;-65
2023/03/02 09:16:39;;;;;;;6.63;4.17;;;;;;;;;;5089327;28;20198;-63
2023/03/02 09:19:06;;;;;;;3.30;1.13;;;;;;;;;;5083881;28;20206;-65
2023/03/02 09:21:35;;;;;;;3.03;2.40;;;;;;;;;;5076358;28;20241;-64
2023/03/02 09:24:02;;;;;;;4.33;2.57;;;;;;;;;;5078686;28;20211;-64
2023/03/02 09:26:29;;;;;;;2.83;2.47;;;;;;;;;;5086508;28;20641;-64
2023/03/02 09:28:56;;;;;;;1.60;1.37;;;;;;;;;;5081528;28;20198;-64
2023/03/02 09:31:24;;;;;;;8.80;3.07;;;;;;;;;;5083959;28;20333;-64
2023/03/02 09:33:51;;;;;;;2.33;1.80;;;;;;;;;;5075083;28;20668;-63
2023/03/02 09:36:20;;;;;;;3.27;2.03;;;;;;;;;;5083413;28;20229;-63
2023/03/02 09:38:49;;;;;;;5.40;3.37;;;;;;;;;;5078735;28;20372;-61
2023/03/02 09:41:28;;;;;;;7.30;3.70;;;;;;;;;;5069384;28;20222;-62
2023/03/02 09:44:00;;;;;;;4.80;2.07;;;;;;;;;;5069281;28;20575;-63
2023/03/02 09:46:29;;;;;;;3.47;1.07;;;;;;;;;;5077370;28;20202;-63
2023/03/02 09:49:03;;;;;;;5.87;2.03;;;;;;;;;;5087018;28;20315;-62
2023/03/02 09:51:33;;;;;;;4.23;3.00;;;;;;;;;;5074585;28;20210;-62
2023/03/02 09:54:08;;;;;;;3.17;2.77;;;;;;;;;;5086027;28;20828;-64
2023/03/02 09:56:36;;;;;;;3.63;2.10;;;;;;;;;;5080844;28;20209;-62
2023/03/02 09:59:06;;;;;;;4.60;3.27;;;;;;;;;;5071695;28;20210;-62
2023/03/02 10:01:36;;;;;;;2.67;1.83;;;;;;;;;;5068631;28;20276;-63
2023/03/02 10:04:09;;;;;;;6.87;3.43;;;;;;;;;;5081058;28;20198;-63
2023/03/02 10:06:36;;;;;;;5.10;2.90;;;;;;;;;;5084262;28;20641;-63
2023/03/02 10:09:05;;;;;;;7.23;3.23;;;;;;;;;;5087747;28;20252;-63
2023/03/02 10:11:37;;;;;;;1.27;1.17;;;;;;;;;;5075819;28;20213;-63
2023/03/02 10:14:07;;;;;;;5.03;3.73;;;;;;;;;;5088060;28;20695;-63
2023/03/02 10:16:37;;;;;;;4.17;2.60;;;;;;;;;;5067791;28;20603;-63
2023/03/02 10:19:08;;;;;;;2.13;1.93;;;;;;;;;;5074851;28;20210;-63
2023/03/02 10:21:38;;;;;;;5.97;3.10;;;;;;;;;;5076894;28;20617;-63
2023/03/02 10:24:11;;;;;;;4.33;2.63;;;;;;;;;;5087520;28;20217;-63
2023/03/02 10:26:40;;;;;;;3.67;2.80;;;;;;;;;;5067352;28;20665;-64
2023/03/02 10:29:23;;;;;;;3.17;2.80;;;;;;;;;;5071842;28;20213;-65
2023/03/02 10:31:52;;;;;;;2.43;2.23;;;;;;;;;;5071558;28;20570;-64
2023/03/02 10:34:20;;;;;;;7.33;2.77;;;;;;;;;;5087234;28;20206;-64
2023/03/02 10:36:47;;;;;;;3.37;2.70;;;;;;;;;;5086608;28;20720;-64
2023/03/02 10:39:16;;;;;;;3.73;2.37;;;;;;;;;;5087153;28;20308;-65
2023/03/02 10:41:45;;;;;;;5.93;3.40;;;;;;;;;;5067049;28;20211;-63
2023/03/02 10:44:15;;;;;;;4.93;3.37;;;;;;;;;;5087392;28;20245;-64
2023/03/02 10:46:43;;;;;;;4.07;2.97;;;;;;;;;;5086311;28;20229;-64
2023/03/02 10:49:24;;;;;;;4.90;4.03;;;;;;;;;;5086765;28;20221;-63
2023/03/02 10:51:55;;;;;;;7.70;3.37;;;;;;;;;;5079850;28;20684;-64
2023/03/02 10:54:24;;;;;;;1.77;1.67;;;;;;;;;;5087011;28;20631;-66
2023/03/02 10:56:53;;;;;;;4.00;2.83;;;;;;;;;;5084757;28;20422;-64
2023/03/02 10:59:31;;;;;;;1.47;1.37;;;;;;;;;;5086813;28;20202;-66
2023/03/02 11:02:01;;;;;;;5.50;3.40;;;;;;;;;;5080160;28;20205;-66
2023/03/02 11:04:28;;;;;;;5.60;3.00;;;;;;;;;;5085919;28;20214;-66
2023/03/02 11:06:55;;;;;;;9.70;4.07;;;;;;;;;;5086591;28;20230;-67
2023/03/02 11:09:24;;;;;;;5.37;3.60;;;;;;;;;;5087102;28;20214;-66
2023/03/02 11:11:54;;;;;;;5.10;3.60;;;;;;;;;;5086461;28;20619;-66
2023/03/02 11:14:22;;;;;;;7.67;3.97;;;;;;;;;;5086793;28;20206;-66
2023/03/02 11:16:51;;;;;;;7.00;3.60;;;;;;;;;;5086455;28;20249;-66
2023/03/02 11:19:20;;;;;;;4.57;3.60;;;;;;;;;;5087050;28;20271;-66
2023/03/02 11:21:48;;;;;;;1.87;1.73;;;;;;;;;;5067785;28;20226;-66
2023/03/02 11:24:18;;;;;;;2.57;2.23;;;;;;;;;;5075450;28;20205;-66
2023/03/02 11:26:49;;;;;;;7.00;3.50;;;;;;;;;;5085586;28;20198;-66
2023/03/02 11:29:24;;;;;;;3.67;3.37;;;;;;;;;;5086339;28;20214;-67
2023/03/02 11:31:52;;;;;;;7.33;3.40;;;;;;;;;;5081420;28;20234;-66
2023/03/02 11:34:24;;;;;;;9.90;3.57;;;;;;;;;;5078648;28;20203;-66
2023/03/02 11:36:58;;;;;;;5.63;3.50;;;;;;;;;;5074429;28;20874;-67
2023/03/02 11:39:26;;;;;;;1.50;1.23;;;;;;;;;;5085959;28;20228;-66
2023/03/02 11:41:55;;;;;;;3.50;2.97;;;;;;;;;;5067672;28;20218;-66
2023/03/02 11:44:23;;;;;;;3.40;2.83;;;;;;;;;;5067528;28;20341;-66
2023/03/02 11:46:52;;;;;;;6.97;3.87;;;;;;;;;;5072892;28;20297;-67
2023/03/02 11:49:22;;;;;;;5.80;3.07;;;;;;;;;;5090552;28;20206;-67
2023/03/02 11:51:55;;;;;;;2.83;2.60;;;;;;;;;;5081213;28;20255;-66
2023/03/02 11:54:30;;;;;;;3.40;2.97;;;;;;;;;;5083707;28;20298;-67
2023/03/02 11:56:59;;;;;;;10.63;4.00;;;;;;;;;;5076953;28;20225;-66
2023/03/02 11:59:27;;;;;;;2.40;2.13;;;;;;;;;;5090087;28;20198;-66
2023/03/02 12:01:55;;;;;;;8.40;3.77;;;;;;;;;;5089432;28;20618;-66
2023/03/02 12:04:27;;;;;;;3.20;2.90;;;;;;;;;;5089885;28;20210;-67
2023/03/02 12:06:54;;;;;;;8.60;2.70;;;;;;;;;;5075629;28;20226;-67
2023/03/02 12:09:35;;;;;;;5.23;3.30;;;;;;;;;;5089411;28;20206;-67
2023/03/02 12:12:17;;;;;;;4.33;3.50;;;;;;;;;;5089261;28;20216;-67
2023/03/02 12:14:44;;;;;;;5.63;3.83;;;;;;;;;;5088028;28;20812;-66
2023/03/02 12:17:22;;;;;;;5.87;3.60;;;;;;;;;;5075651;28;20253;-67
2023/03/02 12:19:50;;;;;;;3.40;3.10;;;;;;;;;;5089048;28;20292;-67
2023/03/02 12:22:26;;;;;;;9.37;4.30;;;;;;;;;;5087293;28;20227;-67
2023/03/02 12:25:00;;;;;;;3.63;3.10;;;;;;;;;;5088542;28;20698;-67
2023/03/02 12:27:34;;;;;;;5.70;3.27;;;;;;;;;;5088020;28;20198;-66
2023/03/02 12:30:10;;;;;;;4.83;3.23;;;;;;;;;;5089372;28;20209;-68
2023/03/02 12:32:37;;;;;;;7.63;3.97;;;;;;;;;;5075730;28;20557;-67
2023/03/02 12:35:10;;;;;;;6.23;3.13;;;;;;;;;;5085852;28;20206;-67
2023/03/02 12:37:42;;;;;;;4.80;3.67;;;;;;;;;;5080789;28;20206;-67
2023/03/02 12:40:30;;;;;;;7.60;3.20;;;;;;;;;;5087281;28;20263;-67
2023/03/02 12:43:24;;;;;;;3.77;2.13;;;;;;;;;;5068441;28;20215;-66
2023/03/02 12:46:02;;;;;;;4.30;2.77;;;;;;;;;;5032526;28;20203;-66
2023/03/02 12:48:31;;;;;;;5.13;3.07;;;;;;;;;;5086224;28;20625;-67
2023/03/02 12:51:00;;;;;;;7.90;3.13;;;;;;;;;;5076524;28;20390;-72
2023/03/02 12:53:27;;;;;;;4.17;2.83;;;;;;;;;;5088912;28;20271;-67
2023/03/02 12:55:54;;;;;;;4.07;2.90;;;;;;;;;;5087539;28;20225;-67
2023/03/02 12:58:22;;;;;;;2.07;1.97;;;;;;;;;;5087324;28;20202;-67
2023/03/02 13:00:51;;;;;;;1.57;1.47;;;;;;;;;;5088028;28;20194;-66
2023/03/02 13:03:19;;;;;;;6.30;2.83;;;;;;;;;;5087932;28;20229;-66
2023/03/02 13:05:47;;;;;;;9.40;3.50;;;;;;;;;;5087695;28;20241;-66
2023/03/02 13:08:17;;;;;;;4.00;3.20;;;;;;;;;;5088255;28;20294;-66
2023/03/02 13:10:48;;;;;;;3.60;2.50;;;;;;;;;;5084732;28;20211;-66
2023/03/02 13:13:17;;;;;;;3.37;2.20;;;;;;;;;;5081316;28;20217;-66
2023/03/02 13:15:52;;;;;;;8.33;3.53;;;;;;;;;;5087904;28;20230;-66
2023/03/02 13:18:22;;;;;;;6.50;2.57;;;;;;;;;;5088402;28;20206;-66
2023/03/02 13:20:49;;;;;;;6.07;2.73;;;;;;;;;;5084681;28;20211;-66
2023/03/02 13:23:17;;;;;;;13.00;2.73;;;;;;;;;;5068358;28;20219;-66
2023/03/02 13:25:51;;;;;;;4.47;3.03;;;;;;;;;;5081811;28;20676;-66
2023/03/02 13:28:26;;;;;;;6.30;3.70;;;;;;;;;;5088030;28;20236;-66
2023/03/02 13:30:56;;;;;;;3.10;1.90;;;;;;;;;;5087955;28;20213;-66
2023/03/02 13:33:25;;;;;;;6.33;3.07;;;;;;;;;;5088086;28;20218;-66
2023/03/02 13:35:52;;;;;;;6.67;2.90;;;;;;;;;;5087326;28;20218;-66
2023/03/02 13:38:20;;;;;;;2.93;2.20;;;;;;;;;;5086284;28;20672;-66
2023/03/02 13:40:50;;;;;;;5.03;3.53;;;;;;;;;;5085618;28;20552;-66
2023/03/02 13:43:20;;;;;;;1.10;1.00;;;;;;;;;;5068346;28;20215;-65
2023/03/02 13:45:51;;;;;;;6.80;2.70;;;;;;;;;;5067700;28;20211;-66
2023/03/02 13:48:18;;;;;;;7.37;1.63;;;;;;;;;;5085226;28;20217;-66
2023/03/02 13:50:53;;;;;;;3.63;2.50;;;;;;;;;;5085724;28;20210;-66
2023/03/02 13:53:20;;;;;;;2.70;2.50;;;;;;;;;;5077642;28;20263;-66
2023/03/02 13:55:48;;;;;;;7.70;3.30;;;;;;;;;;5085622;28;20600;-66
2023/03/02 13:58:16;;;;;;;5.00;2.90;;;;;;;;;;5085250;28;20599;-66
2023/03/02 14:00:43;;;;;;;3.00;2.30;;;;;;;;;;5087869;28;20716;-66
2023/03/02 14:03:21;;;;;;;2.37;2.17;;;;;;;;;;5078690;28;20202;-66
2023/03/02 14:05:48;;;;;;;3.10;2.80;;;;;;;;;;5087583;28;20329;-65
2023/03/02 14:08:17;;;;;;;2.77;2.17;;;;;;;;;;5084555;28;20207;-66
2023/03/02 14:10:44;;;;;;;5.00;2.80;;;;;;;;;;5075752;28;20203;-67
2023/03/02 14:13:13;;;;;;;2.63;2.40;;;;;;;;;;5087794;28;20202;-71
2023/03/02 14:15:42;;;;;;;5.13;2.83;;;;;;;;;;5087886;28;20213;-66
2023/03/02 14:18:16;;;;;;;3.37;2.90;;;;;;;;;;5081966;28;20215;-66
2023/03/02 14:20:43;;;;;;;4.23;2.20;;;;;;;;;;5087668;28;20211;-67
2023/03/02 14:23:10;;;;;;;4.40;2.87;;;;;;;;;;5088082;28;20210;-66
2023/03/02 14:25:39;;;;;;;8.07;3.60;;;;;;;;;;5088131;28;20643;-66
2023/03/02 14:28:06;;;;;;;3.53;2.77;;;;;;;;;;5087085;28;20206;-66
2023/03/02 14:30:33;;;;;;;6.27;2.40;;;;;;;;;;5087693;28;20338;-66
2023/03/02 14:33:00;;;;;;;4.10;2.93;;;;;;;;;;5074274;28;20202;-66
2023/03/02 14:35:27;;;;;;;4.43;2.90;;;;;;;;;;5087669;28;20703;-66
2023/03/02 14:37:54;;;;;;;2.77;2.30;;;;;;;;;;5079571;28;20731;-67
2023/03/02 14:40:23;;;;;;;5.73;3.43;;;;;;;;;;5087530;28;20206;-67
2023/03/02 14:42:52;;;;;;;4.97;2.63;;;;;;;;;;5087131;28;20297;-66
2023/03/02 14:45:19;;;;;;;1.43;1.27;;;;;;;;;;5087344;28;20588;-66
2023/03/02 14:47:46;;;;;;;3.53;2.93;;;;;;;;;;5086597;28;20206;-66
2023/03/02 14:50:15;;;;;;;3.67;3.03;;;;;;;;;;5087406;28;20241;-66
2023/03/02 14:52:43;;;;;;;3.03;2.50;;;;;;;;;;5076350;28;20581;-66